• Join FlightAware (Why Join?)
  • Login
  • US Flag 
11:57PM EDT


 

Airport Tracker/Info


-or-


 

Live Flight TrackerFlight Track Log ✈ SWA385 ✈ 14-Jul-2013 ✈ KSMF - KSNA

Flight Track Log - Related Links

Times and Time Zones

All times are in EDT time to prevent confusion due to time zone crossing. See the SWA385 flight status page for this flight to view local times or setup timezone preferences in your user account.

Time Position Orientation Groundspeed Altitude Reporting Facility
EDT Latitude Longitude Course Direction KTS MPH feet Rate Location/Type
12:05AM 38.6500 -121.5833 109° East 179 206 2,200  Level Northern Cal TRACON
12:06AM 38.6167 -121.5167 123° Southeast 228 262 4,700 3,180 Climbing Northern Cal TRACON
12:07AM 38.5833 -121.4333 117° Southeast 267 307 8,600 3,180 Climbing Northern Cal TRACON
12:08AM 38.5528 -121.3625 119° Southeast 274 315 11,000 3,000 Climbing Oakland Center
12:09AM 38.5031 -121.2589 121° Southeast 334 384 14,600 3,720 Climbing Oakland Center
12:10AM 38.3080 -120.9854 109° East  Level FlightAware Approximate
12:10AM 38.4444 -121.1347 121° Southeast 358 412 18,700  Level Oakland Center
12:11AM 38.3906 -121.0189 121° Southeast 378 435 21,700 2,820 Climbing Oakland Center
12:12AM 38.3331 -120.8967 121° Southeast 400 460 24,500 2,580 Climbing Oakland Center
12:13AM 38.2736 -120.7700 121° Southeast 415 478 27,000 2,340 Climbing Oakland Center
12:14AM 38.1994 -120.6489 128° Southeast 428 493 29,300 1,920 Climbing Oakland Center
12:15AM 38.1022 -120.5558 143° Southeast 433 498 31,000 780 Climbing Oakland Center
12:16AM 38.0047 -120.4592 142° Southeast 442 509 31,000  Level Oakland Center
12:17AM 37.9075 -120.3647 143° Southeast 441 507 31,000  Level Oakland Center
12:18AM 37.8114 -120.2717 143° Southeast 436 502 31,000  Level Oakland Center
12:19AM 37.6961 -120.1592 142° Southeast 435 501 31,000  Level Oakland Center
12:20AM 37.6017 -120.0658 142° Southeast 432 497 31,000  Level Oakland Center
12:21AM 37.5047 -119.9758 144° Southeast 433 498 31,000  Level Oakland Center
12:22AM 37.4100 -119.8831 142° Southeast 433 498 31,000  Level Oakland Center
12:23AM 37.3072 -119.8069 149° Southeast 429 494 31,000  Level Oakland Center
12:24AM 37.1883 -119.7853 172° South 429 494 31,000  Level Oakland Center
12:25AM 37.0714 -119.7683 173° South 426 490 31,000  Level Oakland Center
12:26AM 36.9528 -119.7517 174° South 427 491 31,000  Level Oakland Center
12:27AM 36.8356 -119.7358 174° South 426 490 31,000  Level Oakland Center
12:28AM 36.7200 -119.7189 173° South 419 482 31,000  Level Oakland Center
12:29AM 36.6139 -119.7075 175° South 393 452 31,000  Level Oakland Center
12:30AM 36.5047 -119.6903 173° South 392 451 31,000  Level Oakland Center
12:31AM 36.3953 -119.6739 173° South 394 453 31,000 480 Level Oakland Center
12:32AM 36.2628 -119.6564 174° South 397 457 32,000 1,500 Climbing Oakland Center
12:33AM 36.1489 -119.6400 173° South 406 467 34,100 1,980 Climbing Oakland Center
12:34AM 36.0342 -119.6233 173° South 411 473 36,100 1,320 Climbing Oakland Center
12:35AM 35.9211 -119.6133 176° South 409 471 36,900 420 Climbing Oakland Center
12:36AM 35.8147 -119.6214 184° South 390 449 37,000  Climbing Oakland Center
12:37AM 35.7078 -119.6233 181° South 384 442 37,000  Level Oakland Center
12:38AM 35.6047 -119.5967 168° South 377 434 37,000  Level Oakland Center
12:39AM 35.5006 -119.5669 167° South 379 436 37,000  Level Oakland Center
12:40AM 35.3947 -119.5364 167° South 383 441 37,000  Level Oakland Center
12:41AM 35.2844 -119.4731 155° Southeast 419 482 37,000  Level Oakland Center
12:42AM 35.1756 -119.4133 156° South 424 488 37,000  Level Oakland Center
12:43AM 35.0656 -119.3517 155° Southeast 429 494 37,000  Level Oakland Center
12:44AM 34.9553 -119.2928 156° South 430 495 37,000 -120 Level Oakland Center
12:45AM 34.8469 -119.2308 155° Southeast 429 494 36,800 -1,920 Descending Oakland Center
12:46AM 34.7175 -119.1592 156° South 426 490 33,100 -2,160 Descending Oakland Center
12:48AM 34.5767 -119.0847 156° South 431 496 31,600 -1,140 Descending Los Angeles Center
12:49AM 34.4647 -119.0228 155° Southeast 441 507 30,400 -2,220 Descending Los Angeles Center
12:50AM 34.3542 -118.9628 156° South 437 503 27,100 -3,120 Descending Los Angeles Center
12:51AM 34.2464 -118.9042 156° South 428 493 24,100 -3,240 Descending Los Angeles Center
12:52AM 34.1186 -118.8328 155° Southeast 418 481 20,500 -3,240 Descending Los Angeles Center
12:53AM 34.0178 -118.7775 156° South 401 461 17,500 -2,640 Descending Los Angeles Center
12:54AM 33.9364 -118.7347 156° South 387 445 15,100 -1,740 Descending Los Angeles Center
12:55AM 33.8286 -118.6886 160° South 347 399 14,000 -780 Descending Los Angeles Center
12:56AM 33.7467 -118.6583 163° South 313 360 13,600 -840 Descending Los Angeles Center
12:57AM 33.6828 -118.6364 164° South 304 350 12,400 -1,860 Descending Los Angeles Center
12:58AM 33.5767 -118.5906 160° South 294 338 9,900 -2,040 Descending Los Angeles Center
12:59AM 33.5411 -118.5069 117° Southeast 296 341 8,300 -1,440 Descending Los Angeles Center
01:00AM 33.5350 -118.4142 94° East 291 335 6,700 -1,500 Descending Los Angeles Center
01:01AM 33.5742 -118.3103 66° East 292 336 5,000 -780 Descending Los Angeles Center
01:02AM 33.6083 -118.2267 64° Northeast 287 330 5,000  Level Los Angeles Center
01:04AM 33.6517 -118.1214 64° Northeast 262 302 5,100 -300 Climbing Los Angeles Center
01:04AM 33.6833 -118.0500 62° Northeast 234 269 4,400 -900 Descending Southern California TRACON
01:05AM 33.7167 -117.9833 59° Northeast 230 265 3,400 -840 Descending Southern California TRACON
01:06AM 33.7500 -117.9333 51° Northeast 198 228 2,800 -600 Descending Southern California TRACON
01:07AM 33.7667 -117.8833 68° East 157 181 2,300 -300 Descending Southern California TRACON
01:08AM 33.7833 -117.8500 59° Northeast 160 184 2,300 -300 Level Southern California TRACON
01:10AM 33.7500 -117.8333 157° South 125 144 1,700 -720 Descending Southern California TRACON
01:11AM 33.7167 -117.8500 203° Southwest 125 144 900 -780 Descending Southern California TRACON
01:12AM 33.6833 -117.8667 203° Southwest 123 142 200 -720 Descending Southern California TRACON
01:14AM 33.6757 -117.8682 198° South  Level Estimated